createdAt,value
2022-10-18T00:00:58.165Z,97542.81
2022-10-18T00:03:26.452Z,97550.88
2022-10-18T00:05:54.728Z,97548.97
2022-10-18T00:08:22.668Z,97555.59
2022-10-18T00:10:50.965Z,97557.28
2022-10-18T00:13:20.935Z,97548.72
2022-10-18T00:15:53.188Z,97548.81
2022-10-18T00:18:21.671Z,97550.72
2022-10-18T00:20:58.348Z,97551.69
2022-10-18T00:23:27.664Z,97549.97
2022-10-18T00:26:03.854Z,97543.09
2022-10-18T00:28:33.497Z,97538.97
2022-10-18T00:31:11.911Z,97548.53
2022-10-18T00:33:40.838Z,97550.56
2022-10-18T00:36:09.202Z,97555.75
2022-10-18T00:38:38.133Z,97554.19
2022-10-18T00:41:07.707Z,97549.72
2022-10-18T00:43:59.308Z,97543.03
2022-10-18T00:46:29.039Z,97551.13
2022-10-18T00:48:58.519Z,97551.22
2022-10-18T00:51:32.035Z,97553.63
2022-10-18T00:53:59.999Z,97556.09
2022-10-18T00:56:28.122Z,97553.44
2022-10-18T00:58:58.783Z,97555.13
2022-10-18T01:01:28.435Z,97553.63
2022-10-18T01:03:57.176Z,97545.69
2022-10-18T01:06:26.065Z,97556.19
2022-10-18T01:09:11.585Z,97552.38
2022-10-18T01:12:14.764Z,97539.94
2022-10-18T01:14:53.887Z,97541.75
2022-10-18T01:17:27.075Z,97541.41
2022-10-18T01:20:17.972Z,97546.72
2022-10-18T01:22:49.739Z,97542.16
2022-10-18T01:25:31.376Z,97546.25
2022-10-18T01:28:09.670Z,97547.97
2022-10-18T01:30:47.478Z,97544.34
2022-10-18T01:33:24.522Z,97544.13
2022-10-18T01:35:57.860Z,97543.06
2022-10-18T01:38:27.389Z,97542.81
2022-10-18T01:40:57.698Z,97539.19
2022-10-18T01:43:27.609Z,97548.63
2022-10-18T01:45:59.763Z,97549.47
2022-10-18T01:48:29.123Z,97547.56
2022-10-18T01:50:57.224Z,97551.78
2022-10-18T01:53:31.360Z,97546.13
2022-10-18T01:56:23.488Z,97542.66
2022-10-18T01:59:03.680Z,97544.13
2022-10-18T02:01:43.081Z,97543.03
2022-10-18T02:04:21.767Z,97540.38
2022-10-18T02:06:56.603Z,97539.19
2022-10-18T02:09:34.801Z,97546.69
2022-10-18T02:12:04.458Z,97541.38
2022-10-18T02:14:34.117Z,97541.28
2022-10-18T02:17:07.768Z,97528.72
2022-10-18T02:19:39.687Z,97534.53
2022-10-18T02:22:09.685Z,97539.00
2022-10-18T02:24:40.437Z,97536.22
2022-10-18T02:27:08.963Z,97536.75
2022-10-18T02:29:37.423Z,97539.38
2022-10-18T02:32:12.907Z,97529.38
2022-10-18T02:34:44.502Z,97520.22
2022-10-18T02:37:13.032Z,97525.28
2022-10-18T02:39:46.397Z,97520.69
2022-10-18T02:42:15.463Z,97525.03
2022-10-18T02:44:43.713Z,97520.44
2022-10-18T02:47:13.646Z,97512.28
2022-10-18T02:49:41.628Z,97514.94
2022-10-18T02:52:09.586Z,97521.81
2022-10-18T02:54:37.466Z,97524.69
2022-10-18T02:57:05.526Z,97518.41
2022-10-18T02:59:33.488Z,97521.06
2022-10-18T03:02:01.411Z,97514.78
2022-10-18T03:04:30.715Z,97525.31
2022-10-18T03:06:58.719Z,97524.56
2022-10-18T03:09:26.769Z,97525.41
2022-10-18T03:11:54.729Z,97524.81
2022-10-18T03:14:22.632Z,97530.13
2022-10-18T03:16:50.564Z,97524.09
2022-10-18T03:19:18.808Z,97513.22
2022-10-18T03:21:48.151Z,97515.97
2022-10-18T03:24:16.477Z,97511.53
2022-10-18T03:26:44.355Z,97515.88
2022-10-18T03:29:12.442Z,97512.28
2022-10-18T03:31:40.577Z,97518.53
2022-10-18T03:34:08.504Z,97507.56
2022-10-18T03:36:38.468Z,97509.38
2022-10-18T03:39:07.741Z,97504.31
2022-10-18T03:41:35.710Z,97506.34
2022-10-18T03:44:03.689Z,97511.91
2022-10-18T03:46:31.669Z,97512.09
2022-10-18T03:48:59.648Z,97507.88
2022-10-18T03:51:27.567Z,97513.53
2022-10-18T03:53:55.951Z,97512.09
2022-10-18T03:56:25.244Z,97513.88
2022-10-18T03:58:53.172Z,97514.13
2022-10-18T04:01:21.537Z,97512.56
2022-10-18T04:03:49.689Z,97520.19
2022-10-18T04:06:17.600Z,97514.25
2022-10-18T04:08:45.495Z,97513.41
2022-10-18T04:11:13.427Z,97517.13
2022-10-18T04:13:42.717Z,97517.72
2022-10-18T04:16:10.614Z,97520.38
2022-10-18T04:18:38.650Z,97522.41
2022-10-18T04:21:06.832Z,97522.53
2022-10-18T04:23:37.918Z,97519.41
2022-10-18T04:26:07.222Z,97520.09
2022-10-18T04:28:39.887Z,97524.47
2022-10-18T04:31:09.548Z,97525.31
2022-10-18T04:33:37.724Z,97529.53
2022-10-18T04:36:06.852Z,97534.00
2022-10-18T04:38:35.299Z,97542.06
2022-10-18T04:41:03.391Z,97548.22
2022-10-18T04:43:31.458Z,97546.78
2022-10-18T04:45:59.435Z,97541.66
2022-10-18T04:48:28.838Z,97529.88
2022-10-18T04:50:56.888Z,97525.31
2022-10-18T04:53:24.787Z,97529.53
2022-10-18T04:55:52.746Z,97532.28
2022-10-18T04:58:20.919Z,97541.84
2022-10-18T05:00:48.972Z,97540.16
2022-10-18T05:03:17.380Z,97537.50
2022-10-18T05:06:03.163Z,97540.97
2022-10-18T05:08:32.167Z,97546.53
2022-10-18T05:11:00.145Z,97541.84
2022-10-18T05:13:28.264Z,97540.16
2022-10-18T05:15:56.276Z,97543.78
2022-10-18T05:18:24.262Z,97539.53
2022-10-18T05:20:53.480Z,97543.97
2022-10-18T05:23:21.435Z,97548.69
2022-10-18T05:25:49.656Z,97544.47
2022-10-18T05:28:47.695Z,97539.34
2022-10-18T05:31:07.394Z,97539.59
2022-10-18T05:33:35.944Z,97539.00
2022-10-18T05:36:05.634Z,97541.75
2022-10-18T05:38:33.694Z,97534.13
2022-10-18T05:41:05.713Z,97536.88
2022-10-18T05:43:33.697Z,97546.78
2022-10-18T05:46:01.660Z,97543.28
2022-10-18T05:48:29.561Z,97540.13
2022-10-18T05:51:00.099Z,97542.66
2022-10-18T05:53:38.069Z,97539.50
2022-10-18T05:56:07.173Z,97534.91
2022-10-18T05:58:35.754Z,97536.97
2022-10-18T06:01:05.831Z,97545.88
2022-10-18T06:03:34.698Z,97540.44
2022-10-18T06:06:03.665Z,97541.19
2022-10-18T06:08:33.520Z,97540.13
2022-10-18T06:11:06.688Z,97540.00
2022-10-18T06:13:34.859Z,97539.44
2022-10-18T06:16:02.720Z,97539.34
2022-10-18T06:18:30.689Z,97546.09
2022-10-18T06:20:59.405Z,97548.06
2022-10-18T06:23:27.660Z,97552.91
2022-10-18T06:26:00.138Z,97553.31
2022-10-18T06:28:28.958Z,97553.91
2022-10-18T06:30:58.268Z,97549.13
2022-10-18T06:33:26.494Z,97547.19
2022-10-18T06:35:59.186Z,97545.75
2022-10-18T06:38:27.833Z,97545.53
2022-10-18T06:40:59.105Z,97553.16
2022-10-18T06:43:27.697Z,97550.25
2022-10-18T06:45:56.167Z,97551.72
2022-10-18T06:48:25.192Z,97552.31
2022-10-18T06:50:55.370Z,97552.09
2022-10-18T06:53:23.319Z,97547.28
2022-10-18T06:55:51.327Z,97550.47
2022-10-18T06:58:20.576Z,97554.69
2022-10-18T07:00:48.423Z,97555.91
2022-10-18T07:03:16.373Z,97555.44
2022-10-18T07:05:44.303Z,97558.69
2022-10-18T07:08:12.189Z,97563.66
2022-10-18T07:10:40.101Z,97559.78
2022-10-18T07:13:30.757Z,97565.69
2022-10-18T07:16:11.523Z,97563.56
2022-10-18T07:18:43.814Z,97573.09
2022-10-18T07:21:14.363Z,97572.75
2022-10-18T07:23:44.131Z,97570.41
2022-10-18T07:26:14.482Z,97568.84
2022-10-18T07:28:42.684Z,97566.66
2022-10-18T07:31:13.082Z,97568.75
2022-10-18T07:33:42.964Z,97564.25
2022-10-18T07:36:12.254Z,97563.91
2022-10-18T07:38:40.664Z,97566.19
2022-10-18T07:41:11.614Z,97563.63
2022-10-18T07:43:43.035Z,97560.50
2022-10-18T07:46:12.562Z,97562.53
2022-10-18T07:48:40.638Z,97566.38
2022-10-18T07:51:09.013Z,97566.72
2022-10-18T07:53:37.622Z,97573.28
2022-10-18T07:56:09.501Z,97575.56
2022-10-18T07:58:38.155Z,97571.66
2022-10-18T08:01:08.166Z,97571.16
2022-10-18T08:03:38.734Z,97570.91
2022-10-18T08:06:09.538Z,97580.44
2022-10-18T08:08:38.483Z,97581.06
2022-10-18T08:11:09.108Z,97585.88
2022-10-18T08:13:37.291Z,97582.13
2022-10-18T08:16:07.643Z,97577.09
2022-10-18T08:18:37.573Z,97580.38
2022-10-18T08:21:07.261Z,97587.72
2022-10-18T08:23:35.732Z,97587.22
2022-10-18T08:26:04.761Z,97596.25
2022-10-18T08:28:32.777Z,97588.56
2022-10-18T08:31:04.448Z,97598.84
2022-10-18T08:33:32.671Z,97590.34
2022-10-18T08:36:05.731Z,97596.38
2022-10-18T08:38:54.472Z,97596.94
2022-10-18T08:41:51.584Z,97588.06
2022-10-18T08:44:23.879Z,97595.97
2022-10-18T08:46:56.499Z,97589.56
2022-10-18T08:49:30.347Z,97595.75
2022-10-18T08:52:00.060Z,97601.97
2022-10-18T08:54:35.956Z,97597.53
2022-10-18T08:57:11.300Z,97596.84
2022-10-18T08:59:40.286Z,97592.25
2022-10-18T09:02:20.188Z,97592.28
2022-10-18T09:04:53.370Z,97588.66
2022-10-18T09:07:59.076Z,97593.31
2022-10-18T09:10:41.557Z,97597.56
2022-10-18T09:13:25.820Z,97595.19
2022-10-18T09:15:58.150Z,97597.75
2022-10-18T09:18:42.552Z,97589.59
2022-10-18T09:21:20.163Z,97598.66
2022-10-18T09:23:51.473Z,97597.81
2022-10-18T09:26:21.506Z,97596.97
2022-10-18T09:29:02.207Z,97588.22
2022-10-18T09:31:42.008Z,97592.34
2022-10-18T09:34:20.228Z,97588.66
2022-10-18T09:36:52.373Z,97596.97
2022-10-18T09:39:24.779Z,97591.34
2022-10-18T09:41:58.499Z,97586.72
2022-10-18T09:44:28.476Z,97586.00
2022-10-18T09:47:03.567Z,97590.66
2022-10-18T09:49:35.331Z,97581.53
2022-10-18T09:52:09.008Z,97594.47
2022-10-18T09:54:43.966Z,97596.72
2022-10-18T09:57:19.405Z,97595.28
2022-10-18T09:59:49.804Z,97602.59
2022-10-18T10:02:19.523Z,97598.09
2022-10-18T10:04:47.510Z,97599.03
2022-10-18T10:07:19.245Z,97602.25
2022-10-18T10:09:50.343Z,97604.50
2022-10-18T10:12:29.932Z,97603.09
2022-10-18T10:15:09.604Z,97599.69
2022-10-18T10:17:37.837Z,97604.03
2022-10-18T10:20:16.015Z,97600.50
2022-10-18T10:22:47.540Z,97597.41
2022-10-18T10:25:29.732Z,97599.25
2022-10-18T10:28:04.273Z,97613.22
2022-10-18T10:30:34.058Z,97607.47
2022-10-18T10:33:02.616Z,97610.44
2022-10-18T10:35:52.648Z,97606.44
2022-10-18T10:38:26.162Z,97608.19
2022-10-18T10:40:55.651Z,97607.88
2022-10-18T10:43:42.557Z,97611.28
2022-10-18T10:46:13.283Z,97617.16
2022-10-18T10:48:48.403Z,97613.78
2022-10-18T10:51:19.846Z,97610.97
2022-10-18T10:53:52.255Z,97612.53
2022-10-18T10:56:27.903Z,97606.22
2022-10-18T10:58:57.972Z,97602.53
2022-10-18T11:01:29.468Z,97604.91
2022-10-18T11:03:59.938Z,97597.84
2022-10-18T11:06:46.068Z,97594.03
2022-10-18T11:09:25.468Z,97587.00
2022-10-18T11:12:02.698Z,97583.34
2022-10-18T11:14:37.328Z,97581.06
2022-10-18T11:17:13.929Z,97593.56
2022-10-18T11:19:53.790Z,97597.59
2022-10-18T11:22:26.628Z,97588.28
2022-10-18T11:24:54.645Z,97592.19
2022-10-18T11:27:28.939Z,97583.13
2022-10-18T11:30:19.423Z,97578.31
2022-10-18T11:32:59.516Z,97586.38
2022-10-18T11:35:40.507Z,97577.56
2022-10-18T11:38:23.855Z,97580.16
2022-10-18T11:41:03.906Z,97579.53
2022-10-18T11:44:01.263Z,97578.84
2022-10-18T11:46:40.844Z,97587.72
2022-10-18T11:49:33.205Z,97591.16
2022-10-18T11:52:10.444Z,97584.66
2022-10-18T11:54:51.876Z,97585.88
2022-10-18T11:57:40.932Z,97586.59
2022-10-18T12:00:24.831Z,97581.28
2022-10-18T12:03:28.435Z,97580.97
2022-10-18T12:05:59.147Z,97580.72
2022-10-18T12:08:32.823Z,97581.69
2022-10-18T12:11:07.269Z,97581.50
2022-10-18T12:13:40.465Z,97576.00
2022-10-18T12:16:11.859Z,97576.53
2022-10-18T12:18:49.398Z,97576.97
2022-10-18T12:21:25.365Z,97575.44
2022-10-18T12:23:56.757Z,97570.41
2022-10-18T12:26:25.738Z,97571.41
2022-10-18T12:29:01.684Z,97572.41
2022-10-18T12:31:37.854Z,97570.78
2022-10-18T12:34:23.917Z,97563.19
2022-10-18T12:39:43.850Z,97574.47
2022-10-18T12:42:28.711Z,97570.25
2022-10-18T12:45:03.628Z,97571.94
2022-10-18T12:47:33.587Z,97567.34
2022-10-18T12:50:04.198Z,97567.59
2022-10-18T12:52:34.567Z,97566.66
2022-10-18T12:55:07.719Z,97564.13
2022-10-18T12:58:03.290Z,97575.53
2022-10-18T13:00:53.500Z,97574.53
2022-10-18T13:03:42.976Z,97564.13
2022-10-18T13:06:10.924Z,97570.31
2022-10-18T13:08:42.104Z,97574.47
2022-10-18T13:11:30.009Z,97571.09
2022-10-18T13:14:34.795Z,97570.72
2022-10-18T13:17:13.568Z,97576.91
2022-10-18T13:20:23.884Z,97565.38
2022-10-18T13:23:02.396Z,97570.03
2022-10-18T13:25:40.227Z,97575.69
2022-10-18T13:28:32.164Z,97573.84
2022-10-18T13:31:15.173Z,97573.31
2022-10-18T13:33:43.567Z,97560.09
2022-10-18T13:36:25.253Z,97566.84
2022-10-18T13:39:20.085Z,97559.25
2022-10-18T13:42:21.853Z,97561.09
2022-10-18T13:44:49.860Z,97558.72
2022-10-18T13:47:34.775Z,97556.19
2022-10-18T13:53:47.333Z,97565.84
2022-10-18T13:56:39.430Z,97567.69
2022-10-18T13:59:25.367Z,97576.69
2022-10-18T14:02:13.882Z,97569.34
2022-10-18T14:05:17.024Z,97579.91
2022-10-18T14:07:51.377Z,97577.09
2022-10-18T14:10:43.278Z,97575.09
2022-10-18T14:13:21.168Z,97583.81
2022-10-18T14:15:52.797Z,97582.69
2022-10-18T14:18:27.936Z,97585.91
2022-10-18T14:21:21.978Z,97583.94
2022-10-18T14:23:51.955Z,97587.56
2022-10-18T14:26:22.900Z,97585.06
2022-10-18T14:29:03.982Z,97584.22
2022-10-18T14:31:32.296Z,97586.88
2022-10-18T14:34:01.889Z,97589.75
2022-10-18T14:36:37.298Z,97590.03
2022-10-18T14:39:09.081Z,97585.53
2022-10-18T14:41:48.408Z,97592.56
2022-10-18T14:44:21.184Z,97586.81
2022-10-18T14:46:50.881Z,97583.44
2022-10-18T14:49:20.236Z,97583.75
2022-10-18T14:51:51.212Z,97582.75
2022-10-18T14:54:22.959Z,97582.59
2022-10-18T14:56:54.867Z,97581.59
2022-10-18T14:59:25.602Z,97578.09
2022-10-18T15:01:59.474Z,97579.09
2022-10-18T15:04:32.824Z,97576.69
2022-10-18T15:07:03.130Z,97582.75
2022-10-18T15:09:34.079Z,97576.84
2022-10-18T15:12:04.692Z,97578.66
2022-10-18T15:14:33.230Z,97582.34
2022-10-18T15:17:04.531Z,97579.69
2022-10-18T15:19:35.667Z,97578.16
2022-10-18T15:22:31.440Z,97580.00
2022-10-18T15:25:27.867Z,97587.47
2022-10-18T15:28:00.310Z,97582.41
2022-10-18T15:30:31.275Z,97584.53
2022-10-18T15:33:00.815Z,97585.69
2022-10-18T15:35:31.756Z,97587.97
2022-10-18T15:38:02.526Z,97588.28
2022-10-18T15:40:34.059Z,97589.88
2022-10-18T15:43:06.701Z,97588.31
2022-10-18T15:45:38.531Z,97588.59
2022-10-18T15:48:21.621Z,97585.53
2022-10-18T15:50:51.901Z,97590.03
2022-10-18T15:53:36.475Z,97584.13
2022-10-18T15:56:07.578Z,97581.34
2022-10-18T15:58:45.283Z,97577.69
2022-10-18T16:01:18.167Z,97581.09
2022-10-18T16:03:47.489Z,97587.16
2022-10-18T16:06:18.260Z,97590.25
2022-10-18T16:08:48.605Z,97593.25
2022-10-18T16:11:18.219Z,97585.88
2022-10-18T16:13:48.366Z,97589.56
2022-10-18T16:16:19.252Z,97590.00
2022-10-18T16:18:47.405Z,97593.94
2022-10-18T16:21:19.307Z,97597.75
2022-10-18T16:23:49.397Z,97600.84
2022-10-18T16:26:18.392Z,97603.25
2022-10-18T16:28:48.462Z,97602.72
2022-10-18T16:31:18.681Z,97604.56
2022-10-18T16:33:47.563Z,97602.56
2022-10-18T16:36:16.621Z,97605.41
2022-10-18T16:38:45.482Z,97606.53
2022-10-18T16:41:15.834Z,97602.59
2022-10-18T16:43:45.108Z,97609.06
2022-10-18T16:46:17.972Z,97609.78
2022-10-18T16:48:47.308Z,97614.41
2022-10-18T16:51:15.431Z,97612.31
2022-10-18T16:53:44.036Z,97620.47
2022-10-18T16:56:15.675Z,97623.56
2022-10-18T16:58:43.768Z,97629.75
2022-10-18T17:01:13.188Z,97626.38
2022-10-18T17:03:42.511Z,97632.97
2022-10-18T17:06:16.153Z,97635.09
2022-10-18T17:08:44.512Z,97627.09
2022-10-18T17:11:14.378Z,97636.22
2022-10-18T17:13:42.582Z,97632.41
2022-10-18T17:16:22.553Z,97631.59
2022-10-18T17:18:52.111Z,97645.19
2022-10-18T17:21:20.037Z,97639.56
2022-10-18T17:23:48.001Z,97638.88
2022-10-18T17:26:28.549Z,97633.63
2022-10-18T17:28:59.522Z,97637.41
2022-10-18T17:31:27.514Z,97637.97
2022-10-18T17:33:58.412Z,97648.94
2022-10-18T17:36:26.901Z,97645.66
2022-10-18T17:38:56.038Z,97654.25
2022-10-18T17:41:23.939Z,97649.88
2022-10-18T17:43:51.867Z,97658.16
2022-10-18T17:46:20.259Z,97668.00
2022-10-18T17:48:48.296Z,97663.91
2022-10-18T17:51:18.847Z,97661.75
2022-10-18T17:53:46.848Z,97663.75
2022-10-18T17:56:15.478Z,97655.16
2022-10-18T17:58:44.291Z,97650.94
2022-10-18T18:01:13.592Z,97660.03
2022-10-18T18:03:41.956Z,97652.16
2022-10-18T18:06:19.128Z,97665.06
2022-10-18T18:08:48.197Z,97660.72
2022-10-18T18:11:16.949Z,97672.63
2022-10-18T18:13:45.003Z,97664.91
2022-10-18T18:16:14.852Z,97671.47
2022-10-18T18:18:43.720Z,97671.47
2022-10-18T18:21:11.753Z,97667.25
2022-10-18T18:23:41.546Z,97671.16
2022-10-18T18:26:09.483Z,97670.31
2022-10-18T18:28:38.090Z,97670.72
2022-10-18T18:31:07.863Z,97670.13
2022-10-18T18:33:35.914Z,97662.91
2022-10-18T18:36:04.870Z,97666.25
2022-10-18T18:38:33.811Z,97662.28
2022-10-18T18:41:07.798Z,97657.53
2022-10-18T18:43:36.659Z,97656.25
2022-10-18T18:46:05.787Z,97663.69
2022-10-18T18:48:35.615Z,97660.16
2022-10-18T18:51:05.067Z,97655.34
2022-10-18T18:53:33.201Z,97655.47
2022-10-18T18:56:06.996Z,97648.84
2022-10-18T18:58:36.260Z,97650.19
2022-10-18T19:01:08.183Z,97654.94
2022-10-18T19:03:38.282Z,97653.78
2022-10-18T19:06:07.946Z,97660.22
2022-10-18T19:08:37.506Z,97661.53
2022-10-18T19:11:09.425Z,97662.44
2022-10-18T19:13:37.704Z,97666.44
2022-10-18T19:16:19.633Z,97661.63
2022-10-18T19:21:44.946Z,97652.94
2022-10-18T19:24:13.763Z,97652.94
2022-10-18T19:26:45.540Z,97647.00
2022-10-18T19:29:14.893Z,97659.47
2022-10-18T19:31:43.190Z,97653.56
2022-10-18T19:34:13.273Z,97660.94
2022-10-18T19:36:42.539Z,97660.38
2022-10-18T19:39:15.515Z,97665.69
2022-10-18T19:41:44.973Z,97667.00
2022-10-18T19:44:13.038Z,97667.00
2022-10-18T19:46:40.911Z,97670.88
2022-10-18T19:49:08.932Z,97666.03
2022-10-18T19:51:37.042Z,97660.34
2022-10-18T19:54:05.190Z,97664.00
2022-10-18T19:56:33.740Z,97667.97
2022-10-18T19:59:03.080Z,97662.06
2022-10-18T20:01:31.124Z,97664.09
2022-10-18T20:03:59.556Z,97662.44
2022-10-18T20:06:28.016Z,97664.09
2022-10-18T20:08:56.350Z,97678.63
2022-10-18T20:11:26.126Z,97663.03
2022-10-18T20:13:54.310Z,97664.25
2022-10-18T20:16:28.069Z,97667.00
2022-10-18T20:18:57.883Z,97664.34
2022-10-18T20:21:27.153Z,97666.16
2022-10-18T20:23:55.427Z,97663.88
2022-10-18T20:26:25.405Z,97661.56
2022-10-18T20:28:56.832Z,97666.41
2022-10-18T20:31:27.914Z,97666.75
2022-10-18T20:33:57.787Z,97670.50
2022-10-18T20:36:27.583Z,97672.31
2022-10-18T20:38:55.991Z,97669.75
2022-10-18T20:41:26.292Z,97666.50
2022-10-18T20:43:55.713Z,97661.66
2022-10-18T20:46:24.239Z,97659.09
2022-10-18T20:48:54.712Z,97659.69
2022-10-18T20:51:23.484Z,97667.66
2022-10-18T20:53:51.738Z,97655.47
2022-10-18T20:56:22.139Z,97657.50
2022-10-18T20:58:51.594Z,97661.13
2022-10-18T21:01:21.443Z,97659.44
2022-10-18T21:03:51.564Z,97656.91
2022-10-18T21:06:22.790Z,97660.63
2022-10-18T21:08:54.521Z,97657.25
2022-10-18T21:11:22.965Z,97664.72
2022-10-18T21:13:52.453Z,97664.00
2022-10-18T21:16:20.408Z,97656.13
2022-10-18T21:18:48.634Z,97647.56
2022-10-18T21:21:22.801Z,97647.78
2022-10-18T21:23:51.311Z,97646.31
2022-10-18T21:26:21.322Z,97644.94
2022-10-18T21:28:50.955Z,97644.31
2022-10-18T21:31:21.308Z,97636.38
2022-10-18T21:33:53.420Z,97633.91
2022-10-18T21:36:23.367Z,97634.06
2022-10-18T21:38:52.075Z,97630.75
2022-10-18T21:41:21.664Z,97628.34
2022-10-18T21:43:51.559Z,97623.88
2022-10-18T21:46:21.033Z,97625.19
2022-10-18T21:48:50.381Z,97623.72
2022-10-18T21:51:19.784Z,97616.19
2022-10-18T21:53:51.915Z,97618.84
2022-10-18T21:56:21.871Z,97615.50
2022-10-18T21:58:49.884Z,97614.03
2022-10-18T22:01:19.587Z,97622.59
2022-10-18T22:03:49.970Z,97617.75
2022-10-18T22:06:18.198Z,97615.19
2022-10-18T22:08:51.059Z,97619.78
2022-10-18T22:11:20.874Z,97619.16
2022-10-18T22:13:49.166Z,97617.59
2022-10-18T22:16:18.323Z,97612.38
2022-10-18T22:18:48.268Z,97621.63
2022-10-18T22:21:18.789Z,97626.41
2022-10-18T22:23:48.300Z,97616.03
2022-10-18T22:26:21.679Z,97605.94
2022-10-18T22:28:55.545Z,97604.59
2022-10-18T22:31:26.652Z,97613.13
2022-10-18T22:33:55.333Z,97609.72
2022-10-18T22:36:23.855Z,97607.06
2022-10-18T22:38:52.271Z,97603.53
2022-10-18T22:41:21.668Z,97604.63
2022-10-18T22:43:51.494Z,97607.06
2022-10-18T22:46:20.043Z,97603.34
2022-10-18T22:48:48.611Z,97599.09
2022-10-18T22:51:17.016Z,97602.84
2022-10-18T22:53:45.759Z,97592.72
2022-10-18T22:56:17.065Z,97585.50
2022-10-18T22:58:47.966Z,97593.56
2022-10-18T23:01:17.941Z,97596.56
2022-10-18T23:03:46.265Z,97589.34
2022-10-18T23:06:22.248Z,97584.88
2022-10-18T23:08:50.905Z,97589.09
2022-10-18T23:11:19.183Z,97585.72
2022-10-18T23:13:48.520Z,97587.28
2022-10-18T23:16:16.693Z,97588.03
2022-10-18T23:18:44.991Z,97585.19
2022-10-18T23:21:14.666Z,97584.94
2022-10-18T23:23:43.737Z,97580.81
2022-10-18T23:26:13.862Z,97582.63
2022-10-18T23:28:43.181Z,97578.25
2022-10-18T23:31:14.848Z,97579.13
2022-10-18T23:33:42.948Z,97579.13
2022-10-18T23:36:11.514Z,97576.81
2022-10-18T23:38:40.316Z,97572.78
2022-10-18T23:41:10.723Z,97579.66
2022-10-18T23:43:39.099Z,97580.63
2022-10-18T23:46:07.889Z,97575.66
2022-10-18T23:48:37.518Z,97574.19
2022-10-18T23:51:06.744Z,97573.59
2022-10-18T23:53:35.675Z,97583.34
2022-10-18T23:56:05.400Z,97579.22
2022-10-18T23:58:34.641Z,97575.94
